sensor_id;sensor_type;location;lat;lon;timestamp;pressure;altitude;pressure_sealevel;temperature;humidity
68656;BME280;55638;51.122;13.606;2022-11-30T08:02:09;100924.06;;;-2.17;74.36
68656;BME280;55638;51.122;13.606;2022-11-30T08:03:42;100924.31;;;-1.92;73.70
68656;BME280;55638;51.122;13.606;2022-11-30T08:05:14;100914.91;;;-1.68;72.95
68656;BME280;55638;51.122;13.606;2022-11-30T08:06:45;100923.00;;;-1.41;72.63
68656;BME280;55638;51.122;13.606;2022-11-30T08:08:17;100918.88;;;-1.19;71.96
68656;BME280;55638;51.122;13.606;2022-11-30T08:09:49;100920.06;;;-0.99;71.17
68656;BME280;55638;51.122;13.606;2022-11-30T08:11:32;100922.16;;;-0.81;70.27
68656;BME280;55638;51.122;13.606;2022-11-30T08:13:05;100918.88;;;-0.60;69.92
68656;BME280;55638;51.122;13.606;2022-11-30T08:14:37;100915.72;;;-0.43;69.45
68656;BME280;55638;51.122;13.606;2022-11-30T08:16:30;100908.91;;;-0.22;68.72
68656;BME280;55638;51.122;13.606;2022-11-30T08:18:04;100918.09;;;-0.05;68.40
68656;BME280;55638;51.122;13.606;2022-11-30T08:19:37;100918.50;;;0.09;68.27
68656;BME280;55638;51.122;13.606;2022-11-30T08:21:11;100918.00;;;0.24;68.17
68656;BME280;55638;51.122;13.606;2022-11-30T08:22:43;100915.69;;;0.40;68.30
68656;BME280;55638;51.122;13.606;2022-11-30T08:24:15;100915.19;;;0.54;67.94
68656;BME280;55638;51.122;13.606;2022-11-30T08:25:47;100921.84;;;0.66;67.61
68656;BME280;55638;51.122;13.606;2022-11-30T08:27:18;100915.31;;;0.76;67.21
68656;BME280;55638;51.122;13.606;2022-11-30T08:28:51;100914.06;;;0.85;66.50
68656;BME280;55638;51.122;13.606;2022-11-30T08:30:23;100918.97;;;0.97;66.65
68656;BME280;55638;51.122;13.606;2022-11-30T08:32:02;100915.78;;;1.11;66.58
68656;BME280;55638;51.122;13.606;2022-11-30T08:33:35;100918.06;;;1.21;66.43
68656;BME280;55638;51.122;13.606;2022-11-30T08:35:07;100907.84;;;1.33;66.48
68656;BME280;55638;51.122;13.606;2022-11-30T08:36:39;100911.97;;;1.41;66.02
68656;BME280;55638;51.122;13.606;2022-11-30T08:38:11;100914.19;;;1.52;66.03
68656;BME280;55638;51.122;13.606;2022-11-30T08:39:43;100916.53;;;1.60;65.46
68656;BME280;55638;51.122;13.606;2022-11-30T08:41:18;100918.09;;;1.65;64.58
68656;BME280;55638;51.122;13.606;2022-11-30T08:42:49;100915.00;;;1.76;64.83
68656;BME280;55638;51.122;13.606;2022-11-30T08:44:21;100921.03;;;1.81;64.38
68656;BME280;55638;51.122;13.606;2022-11-30T08:45:53;100928.78;;;1.87;63.47
68656;BME280;55638;51.122;13.606;2022-11-30T08:47:28;100924.19;;;1.91;63.03
68656;BME280;55638;51.122;13.606;2022-11-30T08:49:01;100922.09;;;1.99;63.21
68656;BME280;55638;51.122;13.606;2022-11-30T08:50:52;100932.47;;;2.05;62.76
68656;BME280;55638;51.122;13.606;2022-11-30T08:52:25;100929.53;;;2.11;60.75
68656;BME280;55638;51.122;13.606;2022-11-30T08:53:57;100929.28;;;2.17;62.59
68656;BME280;55638;51.122;13.606;2022-11-30T08:55:29;100931.75;;;2.23;62.68
68656;BME280;55638;51.122;13.606;2022-11-30T08:57:01;100928.13;;;2.25;62.35
68656;BME280;55638;51.122;13.606;2022-11-30T08:58:35;100928.25;;;2.21;59.74
68656;BME280;55638;51.122;13.606;2022-11-30T09:00:07;100933.47;;;2.25;61.52
68656;BME280;55638;51.122;13.606;2022-11-30T09:01:39;100936.88;;;2.28;61.74
68656;BME280;55638;51.122;13.606;2022-11-30T09:03:13;100935.13;;;2.27;61.36
68656;BME280;55638;51.122;13.606;2022-11-30T09:04:46;100940.41;;;2.29;61.20
68656;BME280;55638;51.122;13.606;2022-11-30T09:06:25;100936.00;;;2.28;60.63
68656;BME280;55638;51.122;13.606;2022-11-30T09:07:57;100937.81;;;2.27;60.90
68656;BME280;55638;51.122;13.606;2022-11-30T09:09:29;100931.59;;;2.27;61.10
68656;BME280;55638;51.122;13.606;2022-11-30T09:11:28;100939.94;;;2.19;57.33
68656;BME280;55638;51.122;13.606;2022-11-30T09:13:00;100941.47;;;2.25;61.17
68656;BME280;55638;51.122;13.606;2022-11-30T09:14:32;100942.41;;;2.23;61.17
68656;BME280;55638;51.122;13.606;2022-11-30T09:16:05;100938.91;;;2.21;60.94
68656;BME280;55638;51.122;13.606;2022-11-30T09:17:37;100947.00;;;2.20;60.54
68656;BME280;55638;51.122;13.606;2022-11-30T09:19:08;100942.53;;;2.20;61.28
68656;BME280;55638;51.122;13.606;2022-11-30T09:20:40;100947.84;;;2.20;61.47
68656;BME280;55638;51.122;13.606;2022-11-30T09:22:12;100940.03;;;2.16;60.38
68656;BME280;55638;51.122;13.606;2022-11-30T09:23:44;100946.22;;;2.16;60.95
68656;BME280;55638;51.122;13.606;2022-11-30T09:25:16;100940.03;;;2.16;60.99
68656;BME280;55638;51.122;13.606;2022-11-30T09:26:48;100941.84;;;2.15;61.11
68656;BME280;55638;51.122;13.606;2022-11-30T09:28:20;100940.91;;;2.16;61.17
68656;BME280;55638;51.122;13.606;2022-11-30T09:29:51;100945.41;;;2.14;60.75
68656;BME280;55638;51.122;13.606;2022-11-30T09:31:25;100942.69;;;2.16;60.84
68656;BME280;55638;51.122;13.606;2022-11-30T09:32:58;100936.44;;;2.17;61.09
68656;BME280;55638;51.122;13.606;2022-11-30T09:34:31;100937.28;;;2.19;61.06
68656;BME280;55638;51.122;13.606;2022-11-30T09:36:05;100945.28;;;2.19;59.77
68656;BME280;55638;51.122;13.606;2022-11-30T09:37:37;100946.88;;;2.23;61.23
68656;BME280;55638;51.122;13.606;2022-11-30T09:39:09;100941.59;;;2.21;59.95
68656;BME280;55638;51.122;13.606;2022-11-30T09:40:43;100938.91;;;2.21;60.47
68656;BME280;55638;51.122;13.606;2022-11-30T09:42:25;100952.31;;;2.20;59.03
68656;BME280;55638;51.122;13.606;2022-11-30T09:44:33;100946.13;;;2.19;57.19
68656;BME280;55638;51.122;13.606;2022-11-30T09:46:09;100947.72;;;2.23;60.13
68656;BME280;55638;51.122;13.606;2022-11-30T09:47:54;100942.28;;;2.27;59.45
68656;BME280;55638;51.122;13.606;2022-11-30T09:49:33;100942.16;;;2.30;60.45
68656;BME280;55638;51.122;13.606;2022-11-30T09:51:17;100943.00;;;2.30;60.33
68656;BME280;55638;51.122;13.606;2022-11-30T09:53:14;100944.72;;;2.31;58.57
68656;BME280;55638;51.122;13.606;2022-11-30T09:54:48;100940.16;;;2.35;60.37
68656;BME280;55638;51.122;13.606;2022-11-30T09:56:25;100942.66;;;2.38;59.73
68656;BME280;55638;51.122;13.606;2022-11-30T09:58:00;100935.34;;;2.43;59.69
68656;BME280;55638;51.122;13.606;2022-11-30T09:59:35;100938.84;;;2.45;59.95
68656;BME280;55638;51.122;13.606;2022-11-30T10:01:16;100945.91;;;2.46;59.36
68656;BME280;55638;51.122;13.606;2022-11-30T10:02:49;100939.44;;;2.52;60.42
68656;BME280;55638;51.122;13.606;2022-11-30T10:04:24;100935.84;;;2.53;60.00
68656;BME280;55638;51.122;13.606;2022-11-30T10:06:07;100925.97;;;2.55;59.79
68656;BME280;55638;51.122;13.606;2022-11-30T10:11:52;100935.22;;;2.66;59.00
68656;BME280;55638;51.122;13.606;2022-11-30T10:15:25;100937.75;;;2.69;57.08
68656;BME280;55638;51.122;13.606;2022-11-30T10:21:00;100945.22;;;2.82;56.51
68656;BME280;55638;51.122;13.606;2022-11-30T10:25:15;100937.91;;;2.87;58.32
68656;BME280;55638;51.122;13.606;2022-11-30T10:26:55;100936.97;;;2.88;56.13
68656;BME280;55638;51.122;13.606;2022-11-30T10:30:22;100937.41;;;2.98;59.26
68656;BME280;55638;51.122;13.606;2022-11-30T10:31:58;100937.19;;;3.02;59.48
68656;BME280;55638;51.122;13.606;2022-11-30T10:33:37;100931.00;;;3.02;55.79
68656;BME280;55638;51.122;13.606;2022-11-30T10:37:18;100930.81;;;3.06;58.18
68656;BME280;55638;51.122;13.606;2022-11-30T10:38:56;100934.84;;;3.15;58.29
68656;BME280;55638;51.122;13.606;2022-11-30T10:40:49;100928.50;;;3.18;58.41
68656;BME280;55638;51.122;13.606;2022-11-30T10:42:33;100927.63;;;3.17;56.09
68656;BME280;55638;51.122;13.606;2022-11-30T10:44:18;100928.41;;;3.19;56.24
68656;BME280;55638;51.122;13.606;2022-11-30T10:45:50;100930.03;;;3.23;58.32
68656;BME280;55638;51.122;13.606;2022-11-30T10:47:25;100932.13;;;3.16;57.39
68656;BME280;55638;51.122;13.606;2022-11-30T10:49:02;100928.41;;;3.19;56.24
68656;BME280;55638;51.122;13.606;2022-11-30T10:50:35;100921.94;;;3.25;57.76
68656;BME280;55638;51.122;13.606;2022-11-30T10:52:07;100922.78;;;3.25;57.74
68656;BME280;55638;51.122;13.606;2022-11-30T10:53:39;100917.25;;;3.30;57.93
68656;BME280;55638;51.122;13.606;2022-11-30T10:55:16;100923.22;;;3.35;57.95
68656;BME280;55638;51.122;13.606;2022-11-30T10:56:49;100917.97;;;3.33;57.75
68656;BME280;55638;51.122;13.606;2022-11-30T10:58:30;100925.75;;;3.38;57.36
68656;BME280;55638;51.122;13.606;2022-11-30T11:00:04;100926.47;;;3.42;57.58
68656;BME280;55638;51.122;13.606;2022-11-30T11:01:39;100922.66;;;3.47;57.71
68656;BME280;55638;51.122;13.606;2022-11-30T11:03:23;100920.00;;;3.47;55.16
68656;BME280;55638;51.122;13.606;2022-11-30T11:06:52;100927.84;;;3.50;56.30
68656;BME280;55638;51.122;13.606;2022-11-30T11:08:26;100918.75;;;3.54;57.05
68656;BME280;55638;51.122;13.606;2022-11-30T11:10:00;100930.25;;;3.56;56.79
68656;BME280;55638;51.122;13.606;2022-11-30T11:11:37;100925.03;;;3.53;54.67
68656;BME280;55638;51.122;13.606;2022-11-30T11:13:34;100926.00;;;3.52;53.46
68656;BME280;55638;51.122;13.606;2022-11-30T11:17:03;100924.63;;;3.62;56.16
68656;BME280;55638;51.122;13.606;2022-11-30T11:18:54;100923.66;;;3.63;55.71
68656;BME280;55638;51.122;13.606;2022-11-30T11:20:35;100921.72;;;3.67;56.83
68656;BME280;55638;51.122;13.606;2022-11-30T11:22:21;100919.91;;;3.68;55.07
68656;BME280;55638;51.122;13.606;2022-11-30T11:23:54;100918.69;;;3.75;56.80
68656;BME280;55638;51.122;13.606;2022-11-30T11:25:31;100917.59;;;3.79;56.98
68656;BME280;55638;51.122;13.606;2022-11-30T11:27:03;100921.06;;;3.81;56.95
68656;BME280;55638;51.122;13.606;2022-11-30T11:28:37;100917.44;;;3.82;56.59
68656;BME280;55638;51.122;13.606;2022-11-30T11:32:05;100912.50;;;3.92;56.73
68656;BME280;55638;51.122;13.606;2022-11-30T11:33:50;100916.03;;;3.92;55.36
68656;BME280;55638;51.122;13.606;2022-11-30T11:35:43;100909.91;;;3.90;52.51
68656;BME280;55638;51.122;13.606;2022-11-30T11:37:24;100912.97;;;4.00;55.31
68656;BME280;55638;51.122;13.606;2022-11-30T11:38:59;100913.38;;;4.11;57.60
68656;BME280;55638;51.122;13.606;2022-11-30T11:40:32;100903.38;;;4.15;57.23
68656;BME280;55638;51.122;13.606;2022-11-30T11:42:04;100909.34;;;4.20;57.15
68656;BME280;55638;51.122;13.606;2022-11-30T11:45:49;100907.00;;;4.31;55.97
68656;BME280;55638;51.122;13.606;2022-11-30T11:47:39;100908.72;;;4.32;52.51
68656;BME280;55638;51.122;13.606;2022-11-30T11:49:20;100897.88;;;4.35;51.75
68656;BME280;55638;51.122;13.606;2022-11-30T11:51:01;100905.59;;;4.41;51.82
68656;BME280;55638;51.122;13.606;2022-11-30T11:52:38;100905.19;;;4.49;55.10
68656;BME280;55638;51.122;13.606;2022-11-30T11:56:28;100908.50;;;4.54;53.88
68656;BME280;55638;51.122;13.606;2022-11-30T11:58:01;100912.97;;;4.53;53.11
68656;BME280;55638;51.122;13.606;2022-11-30T11:59:44;100907.53;;;4.55;52.76
68656;BME280;55638;51.122;13.606;2022-11-30T12:03:32;100904.16;;;4.51;51.28
68656;BME280;55638;51.122;13.606;2022-11-30T12:06:42;100905.28;;;4.47;53.01
68656;BME280;55638;51.122;13.606;2022-11-30T12:10:24;100902.44;;;4.50;52.85
68656;BME280;55638;51.122;13.606;2022-11-30T12:12:18;100913.94;;;4.52;54.11
68656;BME280;55638;51.122;13.606;2022-11-30T12:13:49;100915.50;;;4.56;54.63
68656;BME280;55638;51.122;13.606;2022-11-30T12:15:27;100909.19;;;4.57;54.27
68656;BME280;55638;51.122;13.606;2022-11-30T12:18:55;100915.50;;;4.56;54.05
68656;BME280;55638;51.122;13.606;2022-11-30T12:26:06;100908.41;;;4.55;55.69
68656;BME280;55638;51.122;13.606;2022-11-30T12:31:22;100900.16;;;4.60;53.47
68656;BME280;55638;51.122;13.606;2022-11-30T12:35:19;100896.28;;;4.66;53.14
68656;BME280;55638;51.122;13.606;2022-11-30T12:38:41;100910.91;;;4.76;54.17
68656;BME280;55638;51.122;13.606;2022-11-30T12:42:06;100911.53;;;4.81;53.12
68656;BME280;55638;51.122;13.606;2022-11-30T12:45:44;100905.09;;;4.85;53.87
68656;BME280;55638;51.122;13.606;2022-11-30T12:47:35;100910.44;;;4.85;54.03
68656;BME280;55638;51.122;13.606;2022-11-30T12:51:14;100913.44;;;4.79;51.58
68656;BME280;55638;51.122;13.606;2022-11-30T12:53:23;100908.56;;;4.70;49.00
68656;BME280;55638;51.122;13.606;2022-11-30T12:57:18;100910.44;;;4.68;52.73
68656;BME280;55638;51.122;13.606;2022-11-30T12:59:36;100917.59;;;4.67;53.50
68656;BME280;55638;51.122;13.606;2022-11-30T13:04:17;100913.75;;;4.55;53.12
68656;BME280;55638;51.122;13.606;2022-11-30T13:05:56;100921.06;;;4.52;53.21
68656;BME280;55638;51.122;13.606;2022-11-30T13:07:43;100924.94;;;4.46;52.79
68656;BME280;55638;51.122;13.606;2022-11-30T13:10:59;100919.28;;;4.35;52.09
68656;BME280;55638;51.122;13.606;2022-11-30T13:12:35;100921.19;;;4.33;53.64
68656;BME280;55638;51.122;13.606;2022-11-30T13:14:19;100919.56;;;4.29;53.25
68656;BME280;55638;51.122;13.606;2022-11-30T13:15:52;100917.06;;;4.26;53.87
68656;BME280;55638;51.122;13.606;2022-11-30T13:17:24;100920.78;;;4.23;53.78
68656;BME280;55638;51.122;13.606;2022-11-30T13:19:03;100922.00;;;4.16;53.17
68656;BME280;55638;51.122;13.606;2022-11-30T13:20:54;100927.84;;;4.07;51.74
68656;BME280;55638;51.122;13.606;2022-11-30T13:24:21;100917.75;;;3.93;51.21
68656;BME280;55638;51.122;13.606;2022-11-30T13:32:06;100929.28;;;3.76;52.77
68656;BME280;55638;51.122;13.606;2022-11-30T13:33:59;100934.63;;;3.76;54.39
68656;BME280;55638;51.122;13.606;2022-11-30T13:37:17;100923.47;;;3.68;53.58
68656;BME280;55638;51.122;13.606;2022-11-30T13:41:18;100930.91;;;3.61;54.02
68656;BME280;55638;51.122;13.606;2022-11-30T13:42:53;100931.63;;;3.65;54.51
68656;BME280;55638;51.122;13.606;2022-11-30T13:47:48;100939.97;;;3.57;54.88
68656;BME280;55638;51.122;13.606;2022-11-30T13:49:23;100929.28;;;3.57;55.15
68656;BME280;55638;51.122;13.606;2022-11-30T13:50:58;100933.88;;;3.55;55.45
68656;BME280;55638;51.122;13.606;2022-11-30T13:54:47;100937.41;;;3.56;55.37
68656;BME280;55638;51.122;13.606;2022-11-30T13:56:31;100940.97;;;3.55;55.26
68656;BME280;55638;51.122;13.606;2022-11-30T13:58:05;100933.88;;;3.55;55.65
68656;BME280;55638;51.122;13.606;2022-11-30T13:59:44;100936.53;;;3.55;55.27
68656;BME280;55638;51.122;13.606;2022-11-30T14:01:22;100933.78;;;3.57;55.64
68656;BME280;55638;51.122;13.606;2022-11-30T14:03:14;100933.72;;;3.58;55.76
68656;BME280;55638;51.122;13.606;2022-11-30T14:04:47;100936.38;;;3.58;55.80
68656;BME280;55638;51.122;13.606;2022-11-30T14:08:15;100943.50;;;3.58;54.87
68656;BME280;55638;51.122;13.606;2022-11-30T14:09:55;100930.38;;;3.53;54.20
68656;BME280;55638;51.122;13.606;2022-11-30T14:11:38;100940.13;;;3.54;52.91
68656;BME280;55638;51.122;13.606;2022-11-30T14:14:45;100941.78;;;3.57;55.18
68656;BME280;55638;51.122;13.606;2022-11-30T14:16:26;100934.88;;;3.53;53.77
68656;BME280;55638;51.122;13.606;2022-11-30T14:18:04;100945.59;;;3.51;54.13
68656;BME280;55638;51.122;13.606;2022-11-30T14:19:50;100950.94;;;3.51;54.10
68656;BME280;55638;51.122;13.606;2022-11-30T14:21:33;100953.84;;;3.47;53.40
68656;BME280;55638;51.122;13.606;2022-11-30T14:23:29;100946.69;;;3.47;54.46
68656;BME280;55638;51.122;13.606;2022-11-30T14:25:02;100948.50;;;3.47;54.81
68656;BME280;55638;51.122;13.606;2022-11-30T14:26:38;100952.25;;;3.43;54.44
68656;BME280;55638;51.122;13.606;2022-11-30T14:28:14;100953.28;;;3.40;54.44
68656;BME280;55638;51.122;13.606;2022-11-30T14:29:49;100959.56;;;3.39;54.91
68656;BME280;55638;51.122;13.606;2022-11-30T14:31:26;100949.94;;;3.35;54.71
68656;BME280;55638;51.122;13.606;2022-11-30T14:33:03;100952.75;;;3.32;54.60
68656;BME280;55638;51.122;13.606;2022-11-30T14:34:47;100953.91;;;3.26;54.38
68656;BME280;55638;51.122;13.606;2022-11-30T14:36:21;100955.72;;;3.26;54.91
68656;BME280;55638;51.122;13.606;2022-11-30T14:37:55;100954.09;;;3.22;54.97
68656;BME280;55638;51.122;13.606;2022-11-30T14:39:40;100956.13;;;3.16;54.76
68656;BME280;55638;51.122;13.606;2022-11-30T14:41:24;100954.53;;;3.12;54.65
68656;BME280;55638;51.122;13.606;2022-11-30T14:43:00;100952.00;;;3.09;55.03
68656;BME280;55638;51.122;13.606;2022-11-30T14:44:34;100961.94;;;3.06;55.08
68656;BME280;55638;51.122;13.606;2022-11-30T14:46:16;100959.50;;;3.01;54.69
68656;BME280;55638;51.122;13.606;2022-11-30T14:48:02;100956.09;;;2.98;54.65
68656;BME280;55638;51.122;13.606;2022-11-30T14:49:35;100958.91;;;2.95;55.18
68656;BME280;55638;51.122;13.606;2022-11-30T14:51:09;100955.50;;;2.91;55.23
68656;BME280;55638;51.122;13.606;2022-11-30T14:52:46;100959.16;;;2.88;55.31
68656;BME280;55638;51.122;13.606;2022-11-30T14:55:10;100955.91;;;2.82;54.91
68656;BME280;55638;51.122;13.606;2022-11-30T14:56:46;100956.16;;;2.76;54.64
68656;BME280;55638;51.122;13.606;2022-11-30T14:58:25;100956.25;;;2.74;55.41
68656;BME280;55638;51.122;13.606;2022-11-30T15:00:03;100958.31;;;2.67;55.32
68656;BME280;55638;51.122;13.606;2022-11-30T15:01:36;100961.25;;;2.61;55.44
68656;BME280;55638;51.122;13.606;2022-11-30T15:03:19;100959.81;;;2.53;55.00
68656;BME280;55638;51.122;13.606;2022-11-30T15:04:54;100960.81;;;2.50;55.47
68656;BME280;55638;51.122;13.606;2022-11-30T15:06:30;100960.16;;;2.45;55.71
68656;BME280;55638;51.122;13.606;2022-11-30T15:08:02;100965.75;;;2.39;55.90
68656;BME280;55638;51.122;13.606;2022-11-30T15:09:34;100957.03;;;2.35;55.97
68656;BME280;55638;51.122;13.606;2022-11-30T15:11:11;100964.28;;;2.32;56.15
68656;BME280;55638;51.122;13.606;2022-11-30T15:12:44;100960.84;;;2.28;56.21
68656;BME280;55638;51.122;13.606;2022-11-30T15:14:17;100964.53;;;2.26;56.48
68656;BME280;55638;51.122;13.606;2022-11-30T15:15:51;100970.72;;;2.26;56.58
68656;BME280;55638;51.122;13.606;2022-11-30T15:17:23;100963.81;;;2.22;56.79
68656;BME280;55638;51.122;13.606;2022-11-30T15:18:57;100970.97;;;2.20;56.66
68656;BME280;55638;51.122;13.606;2022-11-30T15:20:37;100967.50;;;2.18;57.00
68656;BME280;55638;51.122;13.606;2022-11-30T15:22:20;100973.72;;;2.18;56.79
68656;BME280;55638;51.122;13.606;2022-11-30T15:23:55;100967.38;;;2.21;57.27
68656;BME280;55638;51.122;13.606;2022-11-30T15:25:37;100969.19;;;2.20;57.09
68656;BME280;55638;51.122;13.606;2022-11-30T15:27:13;100970.91;;;2.21;57.20
68656;BME280;55638;51.122;13.606;2022-11-30T15:28:57;100969.13;;;2.22;57.12
68656;BME280;55638;51.122;13.606;2022-11-30T15:30:34;100966.47;;;2.22;57.31
68656;BME280;55638;51.122;13.606;2022-11-30T15:32:15;100981.44;;;2.25;57.34
68656;BME280;55638;51.122;13.606;2022-11-30T15:33:49;100973.28;;;2.29;57.59
68656;BME280;55638;51.122;13.606;2022-11-30T15:35:24;100975.84;;;2.31;57.60
68656;BME280;55638;51.122;13.606;2022-11-30T15:37:09;100974.00;;;2.33;57.71
68656;BME280;55638;51.122;13.606;2022-11-30T15:38:47;100978.34;;;2.35;57.60
68656;BME280;55638;51.122;13.606;2022-11-30T15:40:28;100984.47;;;2.37;57.45
68656;BME280;55638;51.122;13.606;2022-11-30T15:42:02;100978.16;;;2.40;57.68
68656;BME280;55638;51.122;13.606;2022-11-30T15:43:36;100972.69;;;2.43;57.70
68656;BME280;55638;51.122;13.606;2022-11-30T15:45:31;100980.69;;;2.43;57.79
68656;BME280;55638;51.122;13.606;2022-11-30T15:47:22;100974.22;;;2.49;57.75
68656;BME280;55638;51.122;13.606;2022-11-30T15:49:24;100971.63;;;2.47;57.33
68656;BME280;55638;51.122;13.606;2022-11-30T15:50:56;100972.34;;;2.51;57.50
68656;BME280;55638;51.122;13.606;2022-11-30T15:52:29;100969.50;;;2.55;57.34
68656;BME280;55638;51.122;13.606;2022-11-30T15:54:02;100973.84;;;2.58;57.71
68656;BME280;55638;51.122;13.606;2022-11-30T15:55:45;100976.56;;;2.56;57.27
68656;BME280;55638;51.122;13.606;2022-11-30T15:57:18;100976.44;;;2.59;57.56
68656;BME280;55638;51.122;13.606;2022-11-30T16:00:37;100973.78;;;2.59;57.52
68656;BME280;55638;51.122;13.606;2022-11-30T16:02:32;100976.50;;;2.58;57.13
68656;BME280;55638;51.122;13.606;2022-11-30T16:04:05;100975.38;;;2.63;57.74
68656;BME280;55638;51.122;13.606;2022-11-30T16:05:53;100971.91;;;2.61;57.28
68656;BME280;55638;51.122;13.606;2022-11-30T16:07:34;100976.19;;;2.65;57.45
68656;BME280;55638;51.122;13.606;2022-11-30T16:09:22;100985.13;;;2.64;57.33
68656;BME280;55638;51.122;13.606;2022-11-30T16:10:54;100980.56;;;2.66;57.43
68656;BME280;55638;51.122;13.606;2022-11-30T16:12:28;100983.97;;;2.70;57.58
68656;BME280;55638;51.122;13.606;2022-11-30T16:14:00;100973.28;;;2.70;57.65
68656;BME280;55638;51.122;13.606;2022-11-30T16:15:34;100978.63;;;2.70;57.57
68656;BME280;55638;51.122;13.606;2022-11-30T16:17:09;100971.56;;;2.69;57.45
68656;BME280;55638;51.122;13.606;2022-11-30T16:18:41;100974.19;;;2.71;57.59
68656;BME280;55638;51.122;13.606;2022-11-30T16:20:14;100975.06;;;2.71;57.43
68656;BME280;55638;51.122;13.606;2022-11-30T16:21:47;100972.44;;;2.69;57.49
68656;BME280;55638;51.122;13.606;2022-11-30T16:23:20;100976.91;;;2.69;57.64
68656;BME280;55638;51.122;13.606;2022-11-30T16:24:52;100976.91;;;2.69;57.63
68656;BME280;55638;51.122;13.606;2022-11-30T16:26:24;100976.84;;;2.71;57.70
68656;BME280;55638;51.122;13.606;2022-11-30T16:28:17;100975.06;;;2.71;57.45
68656;BME280;55638;51.122;13.606;2022-11-30T16:29:49;100974.19;;;2.71;57.67
68656;BME280;55638;51.122;13.606;2022-11-30T16:31:23;100976.84;;;2.71;57.72
68656;BME280;55638;51.122;13.606;2022-11-30T16:32:55;100976.84;;;2.71;57.47
68656;BME280;55638;51.122;13.606;2022-11-30T16:34:27;100975.06;;;2.71;57.57
68656;BME280;55638;51.122;13.606;2022-11-30T16:36:06;100977.78;;;2.69;57.44
68656;BME280;55638;51.122;13.606;2022-11-30T16:37:38;100977.63;;;2.73;57.83
68656;BME280;55638;51.122;13.606;2022-11-30T16:39:11;100982.03;;;2.74;57.73
68656;BME280;55638;51.122;13.606;2022-11-30T16:40:43;100983.78;;;2.75;57.85
68656;BME280;55638;51.122;13.606;2022-11-30T16:42:15;100981.13;;;2.75;57.79
68656;BME280;55638;51.122;13.606;2022-11-30T16:43:48;100981.84;;;2.78;57.77
68656;BME280;55638;51.122;13.606;2022-11-30T16:45:23;100981.00;;;2.78;57.94
68656;BME280;55638;51.122;13.606;2022-11-30T16:46:55;100978.25;;;2.79;57.81
68656;BME280;55638;51.122;13.606;2022-11-30T16:48:26;100987.06;;;2.81;57.83
68656;BME280;55638;51.122;13.606;2022-11-30T16:49:59;100988.84;;;2.81;58.12
68656;BME280;55638;51.122;13.606;2022-11-30T16:51:31;100981.63;;;2.83;57.89
68656;BME280;55638;51.122;13.606;2022-11-30T16:53:05;100991.41;;;2.84;57.90
68656;BME280;55638;51.122;13.606;2022-11-30T16:54:37;100989.50;;;2.86;57.89
68656;BME280;55638;51.122;13.606;2022-11-30T16:56:10;100985.97;;;2.85;57.67
68656;BME280;55638;51.122;13.606;2022-11-30T16:57:43;100990.31;;;2.88;58.03
68656;BME280;55638;51.122;13.606;2022-11-30T16:59:15;100992.03;;;2.89;57.84
68656;BME280;55638;51.122;13.606;2022-11-30T17:00:47;100992.00;;;2.90;58.02
68656;BME280;55638;51.122;13.606;2022-11-30T17:02:21;100991.78;;;2.95;57.96
68656;BME280;55638;51.122;13.606;2022-11-30T17:03:53;100998.78;;;2.98;57.89
68656;BME280;55638;51.122;13.606;2022-11-30T17:05:25;100992.47;;;3.00;57.43
68656;BME280;55638;51.122;13.606;2022-11-30T17:06:57;100990.50;;;3.04;57.28
68656;BME280;55638;51.122;13.606;2022-11-30T17:08:33;100995.84;;;3.04;57.36
68656;BME280;55638;51.122;13.606;2022-11-30T17:10:06;100996.63;;;3.06;57.28
68656;BME280;55638;51.122;13.606;2022-11-30T17:11:38;100996.59;;;3.07;56.74
68656;BME280;55638;51.122;13.606;2022-11-30T17:13:12;100999.31;;;3.06;57.00
68656;BME280;55638;51.122;13.606;2022-11-30T17:14:44;101000.25;;;3.05;56.55
68656;BME280;55638;51.122;13.606;2022-11-30T17:16:17;101007.53;;;3.01;56.64
68656;BME280;55638;51.122;13.606;2022-11-30T17:17:49;101005.81;;;3.00;56.72
68656;BME280;55638;51.122;13.606;2022-11-30T17:19:21;101008.59;;;2.97;56.83
68656;BME280;55638;51.122;13.606;2022-11-30T17:20:53;101015.88;;;2.93;56.72
68656;BME280;55638;51.122;13.606;2022-11-30T17:22:25;101016.88;;;2.91;56.77
68656;BME280;55638;51.122;13.606;2022-11-30T17:23:57;101014.34;;;2.88;57.09
68656;BME280;55638;51.122;13.606;2022-11-30T17:25:29;101020.75;;;2.84;57.09
68656;BME280;55638;51.122;13.606;2022-11-30T17:27:01;101015.53;;;2.81;57.15
68656;BME280;55638;51.122;13.606;2022-11-30T17:28:32;101020.06;;;2.79;57.28
68656;BME280;55638;51.122;13.606;2022-11-30T17:30:05;101018.38;;;2.76;57.07
68656;BME280;55638;51.122;13.606;2022-11-30T17:31:37;101017.66;;;2.73;57.23
68656;BME280;55638;51.122;13.606;2022-11-30T17:33:09;101019.53;;;2.71;57.39
68656;BME280;55638;51.122;13.606;2022-11-30T17:34:40;101017.78;;;2.69;57.26
68656;BME280;55638;51.122;13.606;2022-11-30T17:36:14;101017.03;;;2.66;57.22
68656;BME280;55638;51.122;13.606;2022-11-30T17:37:46;101018.97;;;2.62;57.16
68656;BME280;55638;51.122;13.606;2022-11-30T17:39:17;101024.19;;;2.65;57.24
68656;BME280;55638;51.122;13.606;2022-11-30T17:40:49;101027.94;;;2.61;57.16
68656;BME280;55638;51.122;13.606;2022-11-30T17:42:21;101030.63;;;2.60;57.15
68656;BME280;55638;51.122;13.606;2022-11-30T17:43:53;101021.91;;;2.56;57.29
68656;BME280;55638;51.122;13.606;2022-11-30T17:45:25;101027.34;;;2.53;57.34
68656;BME280;55638;51.122;13.606;2022-11-30T17:46:56;101031.09;;;2.49;57.29
68656;BME280;55638;51.122;13.606;2022-11-30T17:48:28;101029.38;;;2.48;57.54
68656;BME280;55638;51.122;13.606;2022-11-30T17:50:03;101023.34;;;2.43;57.40
68656;BME280;55638;51.122;13.606;2022-11-30T17:51:35;101032.22;;;2.43;57.61